sensor_id;sensor_type;location;lat;lon;timestamp;P1;durP1;ratioP1;P2;durP2;ratioP2
34317;SDS011;20582;52.196;20.952;2024-03-17T00:02:24;11.35;;;3.45;;
34317;SDS011;20582;52.196;20.952;2024-03-17T00:04:50;12.95;;;3.40;;
34317;SDS011;20582;52.196;20.952;2024-03-17T00:07:16;11.98;;;2.85;;
34317;SDS011;20582;52.196;20.952;2024-03-17T00:09:42;11.95;;;2.63;;
34317;SDS011;20582;52.196;20.952;2024-03-17T00:12:08;15.38;;;2.75;;
34317;SDS011;20582;52.196;20.952;2024-03-17T00:14:34;13.07;;;2.80;;
34317;SDS011;20582;52.196;20.952;2024-03-17T00:17:02;14.05;;;2.67;;
34317;SDS011;20582;52.196;20.952;2024-03-17T00:19:28;10.32;;;2.67;;
34317;SDS011;20582;52.196;20.952;2024-03-17T00:21:54;10.85;;;2.40;;
34317;SDS011;20582;52.196;20.952;2024-03-17T00:24:20;10.40;;;2.72;;
34317;SDS011;20582;52.196;20.952;2024-03-17T00:26:46;8.05;;;2.65;;
34317;SDS011;20582;52.196;20.952;2024-03-17T00:29:13;10.90;;;2.42;;
34317;SDS011;20582;52.196;20.952;2024-03-17T00:31:40;10.88;;;2.95;;
34317;SDS011;20582;52.196;20.952;2024-03-17T00:34:06;9.23;;;2.28;;
34317;SDS011;20582;52.196;20.952;2024-03-17T00:36:32;13.50;;;3.08;;
34317;SDS011;20582;52.196;20.952;2024-03-17T00:38:58;12.18;;;2.65;;
34317;SDS011;20582;52.196;20.952;2024-03-17T00:41:25;12.00;;;2.30;;
34317;SDS011;20582;52.196;20.952;2024-03-17T00:43:51;13.00;;;2.58;;
34317;SDS011;20582;52.196;20.952;2024-03-17T00:46:17;13.20;;;2.45;;
34317;SDS011;20582;52.196;20.952;2024-03-17T00:48:43;12.48;;;2.58;;
34317;SDS011;20582;52.196;20.952;2024-03-17T00:51:12;14.38;;;2.75;;
34317;SDS011;20582;52.196;20.952;2024-03-17T00:53:38;12.65;;;2.65;;
34317;SDS011;20582;52.196;20.952;2024-03-17T00:56:04;15.10;;;2.42;;
34317;SDS011;20582;52.196;20.952;2024-03-17T00:58:30;13.90;;;2.38;;
34317;SDS011;20582;52.196;20.952;2024-03-17T01:00:56;9.35;;;2.35;;
34317;SDS011;20582;52.196;20.952;2024-03-17T01:03:22;13.52;;;2.45;;
34317;SDS011;20582;52.196;20.952;2024-03-17T01:05:48;16.80;;;2.70;;
34317;SDS011;20582;52.196;20.952;2024-03-17T01:08:17;12.05;;;2.78;;
34317;SDS011;20582;52.196;20.952;2024-03-17T01:10:43;14.93;;;2.38;;
34317;SDS011;20582;52.196;20.952;2024-03-17T01:13:09;9.32;;;2.35;;
34317;SDS011;20582;52.196;20.952;2024-03-17T01:15:36;15.52;;;2.50;;
34317;SDS011;20582;52.196;20.952;2024-03-17T01:18:02;9.57;;;2.08;;
34317;SDS011;20582;52.196;20.952;2024-03-17T01:20:29;13.23;;;1.88;;
34317;SDS011;20582;52.196;20.952;2024-03-17T01:22:55;10.23;;;2.53;;
34317;SDS011;20582;52.196;20.952;2024-03-17T01:25:21;16.15;;;3.13;;
34317;SDS011;20582;52.196;20.952;2024-03-17T01:27:47;22.83;;;2.83;;
34317;SDS011;20582;52.196;20.952;2024-03-17T01:30:13;12.57;;;2.55;;
34317;SDS011;20582;52.196;20.952;2024-03-17T01:32:39;9.15;;;2.33;;
34317;SDS011;20582;52.196;20.952;2024-03-17T01:35:05;13.30;;;2.85;;
34317;SDS011;20582;52.196;20.952;2024-03-17T01:37:31;12.77;;;2.88;;
34317;SDS011;20582;52.196;20.952;2024-03-17T01:39:58;14.82;;;2.63;;
34317;SDS011;20582;52.196;20.952;2024-03-17T01:42:24;15.20;;;2.35;;
34317;SDS011;20582;52.196;20.952;2024-03-17T01:44:50;13.40;;;3.72;;
34317;SDS011;20582;52.196;20.952;2024-03-17T01:47:17;13.32;;;2.92;;
34317;SDS011;20582;52.196;20.952;2024-03-17T01:49:44;15.20;;;3.08;;
34317;SDS011;20582;52.196;20.952;2024-03-17T01:52:10;16.92;;;3.03;;
34317;SDS011;20582;52.196;20.952;2024-03-17T01:54:36;11.50;;;2.22;;
34317;SDS011;20582;52.196;20.952;2024-03-17T01:57:03;18.95;;;2.85;;
34317;SDS011;20582;52.196;20.952;2024-03-17T01:59:29;12.20;;;2.28;;
34317;SDS011;20582;52.196;20.952;2024-03-17T02:01:55;12.00;;;2.50;;
34317;SDS011;20582;52.196;20.952;2024-03-17T02:04:22;16.27;;;2.65;;
34317;SDS011;20582;52.196;20.952;2024-03-17T02:06:48;13.45;;;2.65;;
34317;SDS011;20582;52.196;20.952;2024-03-17T02:09:14;12.18;;;2.65;;
34317;SDS011;20582;52.196;20.952;2024-03-17T02:11:40;18.10;;;3.30;;
34317;SDS011;20582;52.196;20.952;2024-03-17T02:14:07;12.35;;;2.65;;
34317;SDS011;20582;52.196;20.952;2024-03-17T02:16:33;12.43;;;3.10;;
34317;SDS011;20582;52.196;20.952;2024-03-17T02:18:59;11.70;;;2.85;;
34317;SDS011;20582;52.196;20.952;2024-03-17T02:21:25;16.08;;;3.05;;
34317;SDS011;20582;52.196;20.952;2024-03-17T02:23:55;12.73;;;3.05;;
34317;SDS011;20582;52.196;20.952;2024-03-17T02:26:21;13.52;;;2.60;;
34317;SDS011;20582;52.196;20.952;2024-03-17T02:28:47;15.23;;;2.45;;
34317;SDS011;20582;52.196;20.952;2024-03-17T02:31:14;16.45;;;3.22;;
34317;SDS011;20582;52.196;20.952;2024-03-17T02:33:41;13.50;;;2.92;;
34317;SDS011;20582;52.196;20.952;2024-03-17T02:36:08;14.48;;;2.58;;
34317;SDS011;20582;52.196;20.952;2024-03-17T02:38:36;13.30;;;2.63;;
34317;SDS011;20582;52.196;20.952;2024-03-17T02:41:21;13.55;;;2.85;;
34317;SDS011;20582;52.196;20.952;2024-03-17T02:43:47;12.05;;;2.55;;
34317;SDS011;20582;52.196;20.952;2024-03-17T02:46:14;13.85;;;3.03;;
34317;SDS011;20582;52.196;20.952;2024-03-17T02:48:40;14.93;;;2.78;;
34317;SDS011;20582;52.196;20.952;2024-03-17T02:51:10;14.80;;;2.80;;
34317;SDS011;20582;52.196;20.952;2024-03-17T02:53:37;12.50;;;2.65;;
34317;SDS011;20582;52.196;20.952;2024-03-17T02:56:03;18.92;;;3.28;;
34317;SDS011;20582;52.196;20.952;2024-03-17T02:58:29;16.00;;;3.00;;
34317;SDS011;20582;52.196;20.952;2024-03-17T03:00:55;15.50;;;3.10;;
34317;SDS011;20582;52.196;20.952;2024-03-17T03:03:21;18.10;;;3.42;;
34317;SDS011;20582;52.196;20.952;2024-03-17T03:05:47;13.57;;;2.90;;
34317;SDS011;20582;52.196;20.952;2024-03-17T03:08:14;18.60;;;3.13;;
34317;SDS011;20582;52.196;20.952;2024-03-17T03:10:43;18.73;;;2.80;;
34317;SDS011;20582;52.196;20.952;2024-03-17T03:13:09;9.05;;;2.53;;
34317;SDS011;20582;52.196;20.952;2024-03-17T03:15:35;16.25;;;3.17;;
34317;SDS011;20582;52.196;20.952;2024-03-17T03:18:01;15.23;;;2.80;;
34317;SDS011;20582;52.196;20.952;2024-03-17T03:20:27;12.75;;;2.97;;
34317;SDS011;20582;52.196;20.952;2024-03-17T03:22:53;13.38;;;2.63;;
34317;SDS011;20582;52.196;20.952;2024-03-17T03:25:20;13.30;;;2.45;;
34317;SDS011;20582;52.196;20.952;2024-03-17T03:27:45;15.57;;;2.78;;
34317;SDS011;20582;52.196;20.952;2024-03-17T03:30:11;12.45;;;2.75;;
34317;SDS011;20582;52.196;20.952;2024-03-17T03:32:37;12.32;;;2.25;;
34317;SDS011;20582;52.196;20.952;2024-03-17T03:35:06;16.83;;;3.03;;
34317;SDS011;20582;52.196;20.952;2024-03-17T03:37:32;14.73;;;3.67;;
34317;SDS011;20582;52.196;20.952;2024-03-17T03:39:58;17.50;;;2.75;;
34317;SDS011;20582;52.196;20.952;2024-03-17T03:42:24;17.88;;;3.45;;
34317;SDS011;20582;52.196;20.952;2024-03-17T03:44:50;17.17;;;3.42;;
34317;SDS011;20582;52.196;20.952;2024-03-17T03:47:16;13.88;;;3.20;;
34317;SDS011;20582;52.196;20.952;2024-03-17T03:49:42;15.85;;;3.33;;
34317;SDS011;20582;52.196;20.952;2024-03-17T03:52:10;13.45;;;2.90;;
34317;SDS011;20582;52.196;20.952;2024-03-17T03:54:36;15.85;;;3.30;;
34317;SDS011;20582;52.196;20.952;2024-03-17T03:57:02;15.20;;;3.55;;
34317;SDS011;20582;52.196;20.952;2024-03-17T03:59:28;18.65;;;3.80;;
34317;SDS011;20582;52.196;20.952;2024-03-17T04:01:54;18.27;;;3.75;;
34317;SDS011;20582;52.196;20.952;2024-03-17T04:04:20;15.82;;;3.95;;
34317;SDS011;20582;52.196;20.952;2024-03-17T04:06:46;13.40;;;3.08;;
34317;SDS011;20582;52.196;20.952;2024-03-17T04:09:12;17.63;;;3.88;;
34317;SDS011;20582;52.196;20.952;2024-03-17T04:11:38;15.43;;;3.33;;
34317;SDS011;20582;52.196;20.952;2024-03-17T04:14:04;11.15;;;3.15;;
34317;SDS011;20582;52.196;20.952;2024-03-17T04:16:30;20.08;;;4.55;;
34317;SDS011;20582;52.196;20.952;2024-03-17T04:18:56;12.73;;;3.13;;
34317;SDS011;20582;52.196;20.952;2024-03-17T04:21:22;14.98;;;3.50;;
34317;SDS011;20582;52.196;20.952;2024-03-17T04:23:48;15.45;;;3.42;;
34317;SDS011;20582;52.196;20.952;2024-03-17T04:26:14;12.85;;;3.45;;
34317;SDS011;20582;52.196;20.952;2024-03-17T04:28:40;16.42;;;3.63;;
34317;SDS011;20582;52.196;20.952;2024-03-17T04:31:06;16.52;;;3.47;;
34317;SDS011;20582;52.196;20.952;2024-03-17T04:33:33;15.30;;;3.65;;
34317;SDS011;20582;52.196;20.952;2024-03-17T04:35:59;14.32;;;3.25;;
34317;SDS011;20582;52.196;20.952;2024-03-17T04:38:25;17.00;;;3.28;;
34317;SDS011;20582;52.196;20.952;2024-03-17T04:40:52;18.35;;;3.60;;
34317;SDS011;20582;52.196;20.952;2024-03-17T04:43:28;17.55;;;4.13;;
34317;SDS011;20582;52.196;20.952;2024-03-17T04:46:00;14.52;;;3.50;;
34317;SDS011;20582;52.196;20.952;2024-03-17T04:48:26;18.37;;;3.33;;
34317;SDS011;20582;52.196;20.952;2024-03-17T04:50:52;13.70;;;3.28;;
34317;SDS011;20582;52.196;20.952;2024-03-17T04:53:18;16.13;;;3.90;;
34317;SDS011;20582;52.196;20.952;2024-03-17T04:55:44;16.80;;;3.17;;
34317;SDS011;20582;52.196;20.952;2024-03-17T04:58:10;16.15;;;4.30;;
34317;SDS011;20582;52.196;20.952;2024-03-17T05:00:36;14.05;;;3.58;;
34317;SDS011;20582;52.196;20.952;2024-03-17T05:03:02;15.27;;;3.33;;
34317;SDS011;20582;52.196;20.952;2024-03-17T05:05:28;16.10;;;4.15;;
34317;SDS011;20582;52.196;20.952;2024-03-17T05:07:54;15.63;;;3.60;;
34317;SDS011;20582;52.196;20.952;2024-03-17T05:10:20;15.60;;;3.40;;
34317;SDS011;20582;52.196;20.952;2024-03-17T05:12:46;13.07;;;3.55;;
34317;SDS011;20582;52.196;20.952;2024-03-17T05:15:13;13.35;;;3.65;;
34317;SDS011;20582;52.196;20.952;2024-03-17T05:17:39;14.88;;;3.28;;
34317;SDS011;20582;52.196;20.952;2024-03-17T05:20:05;18.67;;;3.95;;
34317;SDS011;20582;52.196;20.952;2024-03-17T05:22:33;19.05;;;3.17;;
34317;SDS011;20582;52.196;20.952;2024-03-17T05:24:59;19.08;;;3.70;;
34317;SDS011;20582;52.196;20.952;2024-03-17T05:27:24;13.43;;;4.07;;
34317;SDS011;20582;52.196;20.952;2024-03-17T05:29:50;12.75;;;4.05;;
34317;SDS011;20582;52.196;20.952;2024-03-17T05:32:16;16.02;;;3.95;;
34317;SDS011;20582;52.196;20.952;2024-03-17T05:34:42;16.25;;;3.97;;
34317;SDS011;20582;52.196;20.952;2024-03-17T05:37:08;16.90;;;4.28;;
34317;SDS011;20582;52.196;20.952;2024-03-17T05:39:34;17.58;;;4.07;;
34317;SDS011;20582;52.196;20.952;2024-03-17T05:42:00;20.77;;;4.43;;
34317;SDS011;20582;52.196;20.952;2024-03-17T05:44:28;17.17;;;4.50;;
34317;SDS011;20582;52.196;20.952;2024-03-17T05:46:54;18.10;;;4.63;;
34317;SDS011;20582;52.196;20.952;2024-03-17T05:49:23;14.85;;;4.32;;
34317;SDS011;20582;52.196;20.952;2024-03-17T05:51:49;16.63;;;3.92;;
34317;SDS011;20582;52.196;20.952;2024-03-17T05:54:14;14.82;;;4.10;;
34317;SDS011;20582;52.196;20.952;2024-03-17T05:56:40;15.68;;;4.20;;
34317;SDS011;20582;52.196;20.952;2024-03-17T05:59:06;14.20;;;4.35;;
34317;SDS011;20582;52.196;20.952;2024-03-17T06:01:32;13.30;;;4.10;;
34317;SDS011;20582;52.196;20.952;2024-03-17T06:03:58;16.05;;;3.88;;
34317;SDS011;20582;52.196;20.952;2024-03-17T06:06:25;13.70;;;3.90;;
34317;SDS011;20582;52.196;20.952;2024-03-17T06:08:51;16.23;;;3.58;;
34317;SDS011;20582;52.196;20.952;2024-03-17T06:11:17;16.20;;;5.03;;
34317;SDS011;20582;52.196;20.952;2024-03-17T06:13:43;18.63;;;3.75;;
34317;SDS011;20582;52.196;20.952;2024-03-17T06:16:09;15.43;;;4.32;;
34317;SDS011;20582;52.196;20.952;2024-03-17T06:18:34;18.50;;;4.30;;
34317;SDS011;20582;52.196;20.952;2024-03-17T06:21:04;14.27;;;3.60;;
34317;SDS011;20582;52.196;20.952;2024-03-17T06:23:30;12.05;;;3.55;;
34317;SDS011;20582;52.196;20.952;2024-03-17T06:25:56;14.43;;;3.70;;
34317;SDS011;20582;52.196;20.952;2024-03-17T06:28:22;12.93;;;4.30;;
34317;SDS011;20582;52.196;20.952;2024-03-17T06:30:58;15.25;;;4.18;;
34317;SDS011;20582;52.196;20.952;2024-03-17T06:33:24;17.23;;;3.83;;
34317;SDS011;20582;52.196;20.952;2024-03-17T06:35:51;13.32;;;3.25;;
34317;SDS011;20582;52.196;20.952;2024-03-17T06:38:17;13.98;;;3.63;;
34317;SDS011;20582;52.196;20.952;2024-03-17T06:40:49;10.50;;;3.90;;
34317;SDS011;20582;52.196;20.952;2024-03-17T06:43:15;10.77;;;3.20;;
34317;SDS011;20582;52.196;20.952;2024-03-17T06:45:41;14.18;;;3.08;;
34317;SDS011;20582;52.196;20.952;2024-03-17T06:48:07;12.27;;;2.92;;
34317;SDS011;20582;52.196;20.952;2024-03-17T06:50:33;13.38;;;2.70;;
34317;SDS011;20582;52.196;20.952;2024-03-17T06:52:59;13.13;;;3.40;;
34317;SDS011;20582;52.196;20.952;2024-03-17T06:55:25;12.48;;;3.30;;
34317;SDS011;20582;52.196;20.952;2024-03-17T06:57:53;12.93;;;2.80;;
34317;SDS011;20582;52.196;20.952;2024-03-17T07:00:19;13.90;;;3.60;;
34317;SDS011;20582;52.196;20.952;2024-03-17T07:02:50;11.55;;;3.00;;
34317;SDS011;20582;52.196;20.952;2024-03-17T07:05:16;10.13;;;2.95;;
34317;SDS011;20582;52.196;20.952;2024-03-17T07:07:42;12.18;;;3.42;;
34317;SDS011;20582;52.196;20.952;2024-03-17T07:10:08;12.45;;;2.72;;
34317;SDS011;20582;52.196;20.952;2024-03-17T07:12:36;14.23;;;3.75;;
34317;SDS011;20582;52.196;20.952;2024-03-17T07:15:02;9.57;;;3.15;;
34317;SDS011;20582;52.196;20.952;2024-03-17T07:17:28;11.40;;;3.17;;
34317;SDS011;20582;52.196;20.952;2024-03-17T07:19:54;16.63;;;3.10;;
34317;SDS011;20582;52.196;20.952;2024-03-17T07:22:20;11.98;;;3.45;;
34317;SDS011;20582;52.196;20.952;2024-03-17T07:24:47;13.80;;;3.35;;
34317;SDS011;20582;52.196;20.952;2024-03-17T07:27:17;13.73;;;2.92;;
34317;SDS011;20582;52.196;20.952;2024-03-17T07:29:43;12.88;;;3.95;;
34317;SDS011;20582;52.196;20.952;2024-03-17T07:32:09;13.30;;;2.95;;
34317;SDS011;20582;52.196;20.952;2024-03-17T07:34:35;8.45;;;2.97;;
34317;SDS011;20582;52.196;20.952;2024-03-17T07:37:00;13.95;;;3.08;;
34317;SDS011;20582;52.196;20.952;2024-03-17T07:39:30;17.35;;;3.42;;
34317;SDS011;20582;52.196;20.952;2024-03-17T07:41:59;11.23;;;3.00;;
34317;SDS011;20582;52.196;20.952;2024-03-17T07:44:26;13.25;;;3.30;;
34317;SDS011;20582;52.196;20.952;2024-03-17T07:46:57;12.48;;;2.78;;
34317;SDS011;20582;52.196;20.952;2024-03-17T07:49:23;12.25;;;2.97;;
34317;SDS011;20582;52.196;20.952;2024-03-17T07:51:49;13.60;;;3.15;;
34317;SDS011;20582;52.196;20.952;2024-03-17T07:54:15;14.15;;;3.17;;
34317;SDS011;20582;52.196;20.952;2024-03-17T07:56:41;14.02;;;3.38;;
34317;SDS011;20582;52.196;20.952;2024-03-17T07:59:06;16.05;;;3.67;;
34317;SDS011;20582;52.196;20.952;2024-03-17T08:01:37;13.18;;;3.03;;
34317;SDS011;20582;52.196;20.952;2024-03-17T08:04:03;14.02;;;3.78;;
34317;SDS011;20582;52.196;20.952;2024-03-17T08:06:29;16.08;;;3.13;;
34317;SDS011;20582;52.196;20.952;2024-03-17T08:08:55;12.32;;;3.30;;
34317;SDS011;20582;52.196;20.952;2024-03-17T08:11:22;13.60;;;3.55;;
34317;SDS011;20582;52.196;20.952;2024-03-17T08:13:48;15.40;;;3.30;;
34317;SDS011;20582;52.196;20.952;2024-03-17T08:16:14;15.32;;;3.10;;
34317;SDS011;20582;52.196;20.952;2024-03-17T08:18:41;17.98;;;3.40;;
34317;SDS011;20582;52.196;20.952;2024-03-17T08:21:07;11.82;;;3.10;;
34317;SDS011;20582;52.196;20.952;2024-03-17T08:23:34;15.10;;;3.30;;
34317;SDS011;20582;52.196;20.952;2024-03-17T08:26:04;13.13;;;4.10;;
34317;SDS011;20582;52.196;20.952;2024-03-17T08:28:30;11.68;;;3.60;;
34317;SDS011;20582;52.196;20.952;2024-03-17T08:30:57;10.45;;;3.30;;
34317;SDS011;20582;52.196;20.952;2024-03-17T08:33:24;13.73;;;3.08;;
34317;SDS011;20582;52.196;20.952;2024-03-17T08:35:57;13.23;;;3.53;;
34317;SDS011;20582;52.196;20.952;2024-03-17T08:38:23;8.77;;;3.15;;
34317;SDS011;20582;52.196;20.952;2024-03-17T08:40:50;13.95;;;3.65;;
34317;SDS011;20582;52.196;20.952;2024-03-17T08:43:16;11.65;;;3.45;;
34317;SDS011;20582;52.196;20.952;2024-03-17T08:45:42;13.60;;;3.78;;
34317;SDS011;20582;52.196;20.952;2024-03-17T08:48:08;13.88;;;3.40;;
34317;SDS011;20582;52.196;20.952;2024-03-17T08:50:35;13.02;;;3.92;;
34317;SDS011;20582;52.196;20.952;2024-03-17T08:53:01;11.93;;;3.47;;
34317;SDS011;20582;52.196;20.952;2024-03-17T08:55:27;16.00;;;5.22;;
34317;SDS011;20582;52.196;20.952;2024-03-17T08:57:53;11.18;;;3.38;;
34317;SDS011;20582;52.196;20.952;2024-03-17T09:00:19;13.82;;;3.55;;
34317;SDS011;20582;52.196;20.952;2024-03-17T09:02:45;14.00;;;3.90;;
34317;SDS011;20582;52.196;20.952;2024-03-17T09:05:11;11.80;;;3.80;;
34317;SDS011;20582;52.196;20.952;2024-03-17T09:07:37;13.60;;;4.63;;
34317;SDS011;20582;52.196;20.952;2024-03-17T09:10:04;16.77;;;4.20;;
34317;SDS011;20582;52.196;20.952;2024-03-17T09:12:30;12.85;;;4.10;;
34317;SDS011;20582;52.196;20.952;2024-03-17T09:14:57;14.45;;;4.53;;
34317;SDS011;20582;52.196;20.952;2024-03-17T09:17:23;12.93;;;3.80;;
34317;SDS011;20582;52.196;20.952;2024-03-17T09:19:49;15.00;;;4.07;;
34317;SDS011;20582;52.196;20.952;2024-03-17T09:22:15;13.05;;;3.85;;
34317;SDS011;20582;52.196;20.952;2024-03-17T09:24:41;7.05;;;2.38;;
34317;SDS011;20582;52.196;20.952;2024-03-17T09:27:07;9.38;;;3.05;;
34317;SDS011;20582;52.196;20.952;2024-03-17T09:29:34;8.50;;;3.13;;
34317;SDS011;20582;52.196;20.952;2024-03-17T09:32:00;8.48;;;3.08;;
34317;SDS011;20582;52.196;20.952;2024-03-17T09:34:26;12.82;;;3.40;;
34317;SDS011;20582;52.196;20.952;2024-03-17T09:36:52;9.05;;;3.15;;
34317;SDS011;20582;52.196;20.952;2024-03-17T09:39:18;7.72;;;3.03;;
34317;SDS011;20582;52.196;20.952;2024-03-17T09:41:44;9.90;;;3.20;;
34317;SDS011;20582;52.196;20.952;2024-03-17T09:44:12;9.77;;;3.42;;
34317;SDS011;20582;52.196;20.952;2024-03-17T09:46:38;9.82;;;3.78;;
34317;SDS011;20582;52.196;20.952;2024-03-17T09:49:06;9.52;;;3.08;;
34317;SDS011;20582;52.196;20.952;2024-03-17T09:51:35;9.30;;;2.78;;
34317;SDS011;20582;52.196;20.952;2024-03-17T09:54:06;7.25;;;2.90;;
34317;SDS011;20582;52.196;20.952;2024-03-17T09:56:38;8.45;;;2.88;;
34317;SDS011;20582;52.196;20.952;2024-03-17T09:59:04;9.23;;;2.70;;
34317;SDS011;20582;52.196;20.952;2024-03-17T10:01:33;10.73;;;2.63;;
34317;SDS011;20582;52.196;20.952;2024-03-17T10:03:59;7.57;;;2.20;;
34317;SDS011;20582;52.196;20.952;2024-03-17T10:06:29;6.22;;;2.20;;
34317;SDS011;20582;52.196;20.952;2024-03-17T10:08:55;6.70;;;2.20;;
34317;SDS011;20582;52.196;20.952;2024-03-17T10:11:23;5.35;;;2.30;;
34317;SDS011;20582;52.196;20.952;2024-03-17T10:14:06;6.35;;;2.10;;
34317;SDS011;20582;52.196;20.952;2024-03-17T10:16:33;8.65;;;2.80;;
34317;SDS011;20582;52.196;20.952;2024-03-17T10:19:12;6.30;;;2.05;;
34317;SDS011;20582;52.196;20.952;2024-03-17T10:21:39;7.45;;;2.70;;
34317;SDS011;20582;52.196;20.952;2024-03-17T10:24:05;10.35;;;2.55;;
34317;SDS011;20582;52.196;20.952;2024-03-17T10:26:48;8.02;;;2.40;;
34317;SDS011;20582;52.196;20.952;2024-03-17T10:29:34;9.50;;;3.00;;
34317;SDS011;20582;52.196;20.952;2024-03-17T10:32:13;8.50;;;3.13;;
34317;SDS011;20582;52.196;20.952;2024-03-17T10:34:39;7.45;;;2.67;;
34317;SDS011;20582;52.196;20.952;2024-03-17T10:37:18;8.10;;;2.83;;
34317;SDS011;20582;52.196;20.952;2024-03-17T10:39:48;9.55;;;3.33;;
34317;SDS011;20582;52.196;20.952;2024-03-17T10:42:15;11.23;;;3.15;;
34317;SDS011;20582;52.196;20.952;2024-03-17T10:44:47;8.32;;;3.20;;
34317;SDS011;20582;52.196;20.952;2024-03-17T10:47:24;6.47;;;2.90;;
34317;SDS011;20582;52.196;20.952;2024-03-17T10:49:51;10.35;;;3.03;;
34317;SDS011;20582;52.196;20.952;2024-03-17T10:52:17;7.20;;;3.00;;
34317;SDS011;20582;52.196;20.952;2024-03-17T10:54:47;7.32;;;2.60;;
34317;SDS011;20582;52.196;20.952;2024-03-17T10:57:22;7.35;;;2.58;;
34317;SDS011;20582;52.196;20.952;2024-03-17T10:59:50;7.75;;;2.90;;
34317;SDS011;20582;52.196;20.952;2024-03-17T11:02:22;6.55;;;3.03;;
34317;SDS011;20582;52.196;20.952;2024-03-17T11:04:54;9.45;;;3.00;;
34317;SDS011;20582;52.196;20.952;2024-03-17T11:07:21;8.57;;;2.80;;
34317;SDS011;20582;52.196;20.952;2024-03-17T11:09:51;7.63;;;2.80;;
34317;SDS011;20582;52.196;20.952;2024-03-17T11:17:47;11.65;;;3.13;;
34317;SDS011;20582;52.196;20.952;2024-03-17T11:20:14;7.10;;;2.88;;
34317;SDS011;20582;52.196;20.952;2024-03-17T11:22:41;8.10;;;2.40;;
34317;SDS011;20582;52.196;20.952;2024-03-17T11:28:07;7.97;;;2.85;;
34317;SDS011;20582;52.196;20.952;2024-03-17T11:38:51;7.10;;;2.53;;
34317;SDS011;20582;52.196;20.952;2024-03-17T11:41:30;6.88;;;2.58;;
34317;SDS011;20582;52.196;20.952;2024-03-17T11:44:12;3.05;;;0.98;;
34317;SDS011;20582;52.196;20.952;2024-03-17T11:46:39;6.72;;;1.42;;
34317;SDS011;20582;52.196;20.952;2024-03-17T11:49:05;4.07;;;1.35;;
34317;SDS011;20582;52.196;20.952;2024-03-17T11:51:33;4.97;;;1.80;;
34317;SDS011;20582;52.196;20.952;2024-03-17T11:54:00;3.70;;;1.67;;
34317;SDS011;20582;52.196;20.952;2024-03-17T11:56:26;6.25;;;2.22;;
34317;SDS011;20582;52.196;20.952;2024-03-17T11:59:05;4.32;;;2.15;;
34317;SDS011;20582;52.196;20.952;2024-03-17T12:01:35;4.05;;;2.25;;
34317;SDS011;20582;52.196;20.952;2024-03-17T12:04:02;3.30;;;1.80;;
34317;SDS011;20582;52.196;20.952;2024-03-17T12:06:31;3.63;;;1.83;;
34317;SDS011;20582;52.196;20.952;2024-03-17T12:09:10;2.33;;;1.70;;
34317;SDS011;20582;52.196;20.952;2024-03-17T12:11:36;3.72;;;1.77;;
34317;SDS011;20582;52.196;20.952;2024-03-17T12:14:15;2.80;;;1.70;;
34317;SDS011;20582;52.196;20.952;2024-03-17T12:19:38;3.60;;;2.10;;
34317;SDS011;20582;52.196;20.952;2024-03-17T12:22:04;4.75;;;2.50;;
34317;SDS011;20582;52.196;20.952;2024-03-17T12:24:35;3.83;;;2.20;;
34317;SDS011;20582;52.196;20.952;2024-03-17T12:27:03;3.87;;;2.13;;
34317;SDS011;20582;52.196;20.952;2024-03-17T12:29:33;4.35;;;2.42;;
34317;SDS011;20582;52.196;20.952;2024-03-17T12:32:05;3.28;;;1.95;;
34317;SDS011;20582;52.196;20.952;2024-03-17T12:34:32;3.88;;;2.20;;
34317;SDS011;20582;52.196;20.952;2024-03-17T12:37:01;4.47;;;2.10;;
34317;SDS011;20582;52.196;20.952;2024-03-17T12:39:29;4.13;;;1.80;;
34317;SDS011;20582;52.196;20.952;2024-03-17T12:44:38;2.95;;;1.70;;
34317;SDS011;20582;52.196;20.952;2024-03-17T12:47:08;5.10;;;1.90;;
34317;SDS011;20582;52.196;20.952;2024-03-17T12:49:34;5.50;;;2.03;;
34317;SDS011;20582;52.196;20.952;2024-03-17T12:52:01;3.88;;;1.90;;
34317;SDS011;20582;52.196;20.952;2024-03-17T12:54:27;5.15;;;1.85;;
34317;SDS011;20582;52.196;20.952;2024-03-17T12:57:03;4.47;;;2.08;;
34317;SDS011;20582;52.196;20.952;2024-03-17T12:59:48;3.95;;;2.60;;
34317;SDS011;20582;52.196;20.952;2024-03-17T13:02:33;4.43;;;2.17;;
34317;SDS011;20582;52.196;20.952;2024-03-17T13:05:32;6.82;;;2.40;;
34317;SDS011;20582;52.196;20.952;2024-03-17T13:07:52;4.57;;;2.15;;
34317;SDS011;20582;52.196;20.952;2024-03-17T13:10:21;3.70;;;1.63;;
34317;SDS011;20582;52.196;20.952;2024-03-17T13:12:48;3.80;;;1.88;;
34317;SDS011;20582;52.196;20.952;2024-03-17T13:15:15;2.92;;;1.60;;
34317;SDS011;20582;52.196;20.952;2024-03-17T13:17:41;2.85;;;1.38;;
34317;SDS011;20582;52.196;20.952;2024-03-17T13:20:16;4.53;;;1.77;;
34317;SDS011;20582;52.196;20.952;2024-03-17T13:22:43;3.83;;;1.92;;
34317;SDS011;20582;52.196;20.952;2024-03-17T13:25:21;4.93;;;1.80;;
34317;SDS011;20582;52.196;20.952;2024-03-17T13:27:49;6.57;;;2.30;;
34317;SDS011;20582;52.196;20.952;2024-03-17T13:30:16;4.43;;;2.05;;
34317;SDS011;20582;52.196;20.952;2024-03-17T13:32:42;6.53;;;2.22;;
34317;SDS011;20582;52.196;20.952;2024-03-17T13:35:15;3.47;;;1.80;;
34317;SDS011;20582;52.196;20.952;2024-03-17T13:37:42;5.13;;;2.00;;
34317;SDS011;20582;52.196;20.952;2024-03-17T13:40:08;3.30;;;1.90;;
34317;SDS011;20582;52.196;20.952;2024-03-17T13:42:37;5.68;;;2.28;;
34317;SDS011;20582;52.196;20.952;2024-03-17T13:45:03;3.75;;;1.90;;
34317;SDS011;20582;52.196;20.952;2024-03-17T13:47:31;4.55;;;1.80;;
34317;SDS011;20582;52.196;20.952;2024-03-17T13:49:58;6.70;;;1.95;;
34317;SDS011;20582;52.196;20.952;2024-03-17T13:52:24;2.28;;;1.60;;
34317;SDS011;20582;52.196;20.952;2024-03-17T13:54:53;4.60;;;1.90;;
34317;SDS011;20582;52.196;20.952;2024-03-17T13:57:19;5.88;;;1.95;;
34317;SDS011;20582;52.196;20.952;2024-03-17T13:59:45;4.75;;;1.98;;
34317;SDS011;20582;52.196;20.952;2024-03-17T14:02:13;2.60;;;1.88;;
34317;SDS011;20582;52.196;20.952;2024-03-17T14:04:39;4.88;;;2.40;;
34317;SDS011;20582;52.196;20.952;2024-03-17T14:07:05;6.20;;;2.20;;
34317;SDS011;20582;52.196;20.952;2024-03-17T14:09:31;6.25;;;2.40;;
34317;SDS011;20582;52.196;20.952;2024-03-17T14:11:57;5.45;;;2.30;;
34317;SDS011;20582;52.196;20.952;2024-03-17T14:14:23;2.63;;;1.90;;
34317;SDS011;20582;52.196;20.952;2024-03-17T14:16:49;4.78;;;2.00;;
34317;SDS011;20582;52.196;20.952;2024-03-17T14:19:15;3.90;;;2.42;;
34317;SDS011;20582;52.196;20.952;2024-03-17T14:21:41;4.20;;;2.30;;
34317;SDS011;20582;52.196;20.952;2024-03-17T14:24:07;5.97;;;2.42;;
34317;SDS011;20582;52.196;20.952;2024-03-17T14:26:34;3.67;;;2.22;;
34317;SDS011;20582;52.196;20.952;2024-03-17T14:29:03;4.68;;;2.55;;
34317;SDS011;20582;52.196;20.952;2024-03-17T14:31:32;6.53;;;2.60;;
34317;SDS011;20582;52.196;20.952;2024-03-17T14:34:01;4.38;;;2.40;;
34317;SDS011;20582;52.196;20.952;2024-03-17T14:36:27;5.40;;;2.45;;
34317;SDS011;20582;52.196;20.952;2024-03-17T14:38:55;6.78;;;2.63;;
34317;SDS011;20582;52.196;20.952;2024-03-17T14:41:24;4.78;;;2.60;;
34317;SDS011;20582;52.196;20.952;2024-03-17T14:43:50;5.53;;;2.38;;
34317;SDS011;20582;52.196;20.952;2024-03-17T14:46:16;3.65;;;2.20;;
34317;SDS011;20582;52.196;20.952;2024-03-17T14:48:42;3.65;;;1.98;;
34317;SDS011;20582;52.196;20.952;2024-03-17T14:51:08;5.13;;;2.40;;